Other Surface Observations
Issued by NWS Great Falls, MT

Home | Current Version | Previous Version | Text Only | Print | Product List | Glossary On
Versions: 1 2 3 4 5 6 7 8 9 10 11 12 13 14 15 16 17 18 19 20 21 22 23 24 25 26 27 28 29 30 31 32 33 34 35 36 37 38 39 40 41 42 43 44 45 46 47 48 49 50
000
SXUS55 KTFX 051107
OSOTFX

AREA AWOS OBSERVATIONS
NATIONAL WEATHER SERVICE GREAT FALLS MT
0409 AM MDT Sat Sep 05 2015

METAR K6S8 050955Z AUTO 33001KT 40SM 12/08 A2991 RMK A01 T01160083
METAR K7S0 050955Z AUTO 16002KT 40SM 11/08 A2986 RMK A01 T01110083
METAR K7S1 050955Z AUTO 34007KT 40SM 11/07 A2988 RMK A01 T01050066
METAR K97M 050955Z AUTO 13009KT 40SM 18/13 A2982 RMK A01 T01830133
METAR K9S2 050955Z AUTO 34011KT 40SM 11/06 A2994 RMK A01 T01050061
METAR K9S5 050955Z AUTO 02000KT 40SM 11/M01 A2987 RMK A01 T01051005
METAR KM75 050955Z AUTO 34008KT 25SM 11/07 A2993 RMK A01 T01050072
METAR KRPX 050955Z AUTO 17005KT 25SM 10/07 A2986 RMK A01 T01000072
METAR KS01 050955Z AUTO 28002KT 3 1/2SM 08/08 A3001 RMK A01 T00770077
METAR KS01 050855Z AUTO 28010KT 7SM 07/07 A3000 RMK A01 T00720072
METAR KS34 050955Z AUTO 10000KT 2 1/2SM 11/07 A2987 RMK A01 T01110072
METAR KS34 050855Z AUTO 35000KT 10SM 13/06 A2985 RMK A01 T01330061
METAR KTHM 050955Z AUTO 25000KT 4SM 11/09 A2992 RMK A01 T01050088
METAR KTHM 050855Z AUTO 24000KT 40SM 11/09 A2990 RMK A01 T01110088



USA.gov is the U.S. government's official web portal to all federal, state and local government web resources and services.